Yellow Mule RAWS (NWS)

Elevation
9200ft
Aggregated by Synoptic Data
Date/Time Wind Direction Wind Speed knots Wind Gust knots RH % Accumulated Precip Inches Air Temp Fahrenheit
2024-07-19 02:04 4 7 45 7.73 57
2024-07-19 01:04 6 8 47 7.73 59
2024-07-19 00:04 5 11 52 7.73 58
2024-07-18 23:04 6 8 52 7.73 59
2024-07-18 22:04 1 6 45 7.73 60
2024-07-18 21:04 5 8 49 7.73 60
2024-07-18 20:04 5 11 52 7.73 62
2024-07-18 19:04 10 21 45 7.73 63
2024-07-18 18:04 4 7 45 7.73 65
2024-07-18 17:04 1 8 43 7.73 67
2024-07-18 16:04 SE 5 23 49 7.73 64
2024-07-18 15:04 SSW 15 24 43 7.73 60
2024-07-18 14:04 6 15 30 7.72 72
2024-07-18 13:04 5 12 31 7.72 69
2024-07-18 12:04 3 10 43 7.72 67
2024-07-18 11:04 3 10 37 7.72 73
2024-07-18 10:04 5 11 34 7.72 70
2024-07-18 09:04 4 9 43 7.72 62
2024-07-18 08:04 5 10 42 7.72 61
2024-07-18 07:04 9 12 41 7.72 59
2024-07-18 06:04 6 8 52 7.72 53
2024-07-18 05:04 5 7 50 7.72 55
2024-07-18 04:04 3 6 49 7.72 55
2024-07-18 03:04 3 8 51 7.72 54
2024-07-18 02:04 5 8 53 7.72 54
2024-07-18 01:04 3 6 49 7.72 56
2024-07-18 00:04 5 12 53 7.72 55
2024-07-17 23:04 9 14 49 7.72 56
2024-07-17 22:04 8 12 45 7.72 57
2024-07-17 21:04 5 8 44 7.72 58
2024-07-17 20:04 6 9 42 7.72 62
2024-07-17 19:04 3 10 36 7.72 65
2024-07-17 18:04 7 14 41 7.72 62
2024-07-17 17:04 5 19 39 7.72 65
2024-07-17 16:04 12 17 37 7.72 61
2024-07-17 15:04 6 12 35 7.72 64
2024-07-17 14:04 5 12 35 7.72 66
2024-07-17 13:04 3 13 43 7.72 66
2024-07-17 12:04 5 8 39 7.72 70
2024-07-17 11:04 4 7 35 7.72 71
2024-07-17 10:04 3 5 37 7.72 68
2024-07-17 09:04 3 3 42 7.72 64
2024-07-17 08:04 1 6 45 7.72 59
2024-07-17 07:04 4 7 56 7.72 53
2024-07-17 06:04 3 4 54 7.72 53
2024-07-17 05:04 1 6 48 7.72 54
2024-07-17 04:04 6 9 56 7.72 52
2024-07-17 03:04 5 14 56 7.72 53
2024-07-17 02:04 10 17 53 7.72 54